createdAt,value
2022-11-02T00:00:28.728Z,9.43
2022-11-02T00:02:57.277Z,6.03
2022-11-02T00:05:25.767Z,8.37
2022-11-02T00:07:54.375Z,7.90
2022-11-02T00:10:24.356Z,6.37
2022-11-02T00:12:53.223Z,8.43
2022-11-02T00:15:21.334Z,10.03
2022-11-02T00:17:52.248Z,6.00
2022-11-02T00:20:21.022Z,5.37
2022-11-02T00:22:49.768Z,5.57
2022-11-02T00:25:19.671Z,6.87
2022-11-02T00:27:49.152Z,5.03
2022-11-02T00:30:17.428Z,5.20
2022-11-02T00:32:45.466Z,6.10
2022-11-02T00:35:13.760Z,5.03
2022-11-02T00:37:41.849Z,7.43
2022-11-02T00:40:11.340Z,5.60
2022-11-02T00:42:39.427Z,6.90
2022-11-02T00:45:10.448Z,13.63
2022-11-02T00:47:38.669Z,5.57
2022-11-02T00:50:07.746Z,8.43
2022-11-02T00:52:35.794Z,10.33
2022-11-02T00:55:04.108Z,7.47
2022-11-02T00:57:32.393Z,4.60
2022-11-02T01:00:00.414Z,6.23
2022-11-02T01:02:29.886Z,6.33
2022-11-02T01:04:58.010Z,7.90
2022-11-02T01:07:26.199Z,6.13
2022-11-02T01:09:54.322Z,9.20
2022-11-02T01:12:22.525Z,6.53
2022-11-02T01:14:50.966Z,6.30
2022-11-02T01:17:19.855Z,7.03
2022-11-02T01:19:49.543Z,6.00
2022-11-02T01:22:17.617Z,6.10
2022-11-02T01:24:45.635Z,6.63
2022-11-02T01:27:13.696Z,4.87
2022-11-02T01:29:41.842Z,6.33
2022-11-02T01:32:09.985Z,10.83
2022-11-02T01:34:38.040Z,7.20
2022-11-02T01:37:19.593Z,6.90
2022-11-02T01:39:48.317Z,5.67
2022-11-02T01:42:21.407Z,11.83
2022-11-02T01:44:49.462Z,5.20
2022-11-02T01:47:22.393Z,8.50
2022-11-02T01:49:55.055Z,10.13
2022-11-02T01:52:27.733Z,6.50
2022-11-02T01:54:58.724Z,6.27
2022-11-02T01:57:27.501Z,7.83
2022-11-02T01:59:57.554Z,7.17
2022-11-02T02:02:27.014Z,7.23
2022-11-02T02:04:59.267Z,17.50
2022-11-02T02:07:28.885Z,6.93
2022-11-02T02:09:57.316Z,10.87
2022-11-02T02:12:26.237Z,13.27
2022-11-02T02:14:54.920Z,8.00
2022-11-02T02:17:30.288Z,8.10
2022-11-02T02:20:03.700Z,9.80
2022-11-02T02:22:44.889Z,6.37
2022-11-02T02:25:26.209Z,12.60
2022-11-02T02:28:06.161Z,12.27
2022-11-02T02:30:38.528Z,6.07
2022-11-02T02:33:08.345Z,5.50
2022-11-02T02:35:41.052Z,8.00
2022-11-02T02:38:12.429Z,14.70
2022-11-02T02:40:43.246Z,5.70
2022-11-02T02:43:14.810Z,11.57
2022-11-02T02:45:45.738Z,9.47
2022-11-02T02:48:16.501Z,10.17
2022-11-02T02:50:48.635Z,11.70
2022-11-02T02:53:18.159Z,9.43
2022-11-02T02:55:47.834Z,9.00
2022-11-02T02:58:21.044Z,11.10
2022-11-02T03:00:49.064Z,11.97
2022-11-02T03:03:20.370Z,10.50
2022-11-02T03:06:03.067Z,8.13
2022-11-02T03:08:32.483Z,7.47
2022-11-02T03:11:04.670Z,16.03
2022-11-02T03:13:42.303Z,7.77
2022-11-02T03:16:17.563Z,8.33
2022-11-02T03:18:49.490Z,8.50
2022-11-02T03:21:27.622Z,12.37
2022-11-02T03:23:57.592Z,18.50
2022-11-02T03:26:30.764Z,6.63
2022-11-02T03:29:04.842Z,8.73
2022-11-02T03:31:37.489Z,8.03
2022-11-02T03:34:16.962Z,7.83
2022-11-02T03:36:48.023Z,12.37
2022-11-02T03:39:19.057Z,11.50
2022-11-02T03:41:47.876Z,9.80
2022-11-02T03:44:21.005Z,6.90
2022-11-02T03:46:50.077Z,10.20
2022-11-02T03:49:20.007Z,11.27
2022-11-02T03:51:49.354Z,8.07
2022-11-02T03:54:22.962Z,10.63
2022-11-02T03:56:52.765Z,7.17
2022-11-02T03:59:22.539Z,8.87
2022-11-02T04:01:52.479Z,11.40
2022-11-02T04:04:20.710Z,6.03
2022-11-02T04:06:49.644Z,8.33
2022-11-02T04:09:18.039Z,6.17
2022-11-02T04:12:03.687Z,13.90
2022-11-02T04:14:38.948Z,9.57
2022-11-02T04:17:25.272Z,9.43
2022-11-02T04:19:53.647Z,10.50
2022-11-02T04:22:39.526Z,4.80
2022-11-02T04:25:19.383Z,5.50
2022-11-02T04:27:49.042Z,9.33
2022-11-02T04:30:20.229Z,8.07
2022-11-02T04:33:07.369Z,8.60
2022-11-02T04:35:37.682Z,8.87
2022-11-02T04:38:23.872Z,6.70
2022-11-02T04:41:12.177Z,7.77
2022-11-02T04:43:42.408Z,8.40
2022-11-02T04:46:11.813Z,12.83
2022-11-02T04:48:39.951Z,13.53
2022-11-02T04:51:08.106Z,13.40
2022-11-02T04:53:36.236Z,9.53
2022-11-02T04:56:04.422Z,10.87
2022-11-02T04:58:32.506Z,15.30
2022-11-02T05:01:00.599Z,9.83
2022-11-02T05:03:30.021Z,10.97
2022-11-02T05:05:58.065Z,9.43
2022-11-02T05:08:26.155Z,11.20
2022-11-02T05:10:55.707Z,8.20
2022-11-02T05:13:24.380Z,8.90
2022-11-02T05:15:53.055Z,17.27
2022-11-02T05:20:53.106Z,11.83
2022-11-02T05:23:22.019Z,8.63
2022-11-02T05:25:56.901Z,18.03
2022-11-02T05:28:25.777Z,7.50
2022-11-02T05:30:54.361Z,11.70
2022-11-02T05:33:26.616Z,12.40
2022-11-02T05:36:00.165Z,10.23
2022-11-02T05:38:28.935Z,7.57
2022-11-02T05:40:58.478Z,9.37
2022-11-02T05:43:27.014Z,7.40
2022-11-02T05:45:55.897Z,7.60
2022-11-02T05:48:24.732Z,8.00
2022-11-02T05:50:56.567Z,10.13
2022-11-02T05:53:26.779Z,8.50
2022-11-02T05:55:59.297Z,6.07
2022-11-02T05:58:27.745Z,14.40
2022-11-02T06:00:55.829Z,11.80
2022-11-02T06:03:23.941Z,7.90
2022-11-02T06:05:57.349Z,13.57
2022-11-02T06:08:27.171Z,14.97
2022-11-02T06:10:55.481Z,18.10
2022-11-02T06:13:23.590Z,14.40
2022-11-02T06:15:51.910Z,15.40
2022-11-02T06:18:20.062Z,8.70
2022-11-02T06:20:48.295Z,11.73
2022-11-02T06:23:18.262Z,8.93
2022-11-02T06:25:53.402Z,28.90
2022-11-02T06:28:21.755Z,13.57
2022-11-02T06:30:50.549Z,11.00
2022-11-02T06:33:19.343Z,12.40
2022-11-02T06:35:48.966Z,15.50
2022-11-02T06:38:17.193Z,12.63
2022-11-02T06:40:45.716Z,9.17
2022-11-02T06:43:16.914Z,8.57
2022-11-02T06:45:46.813Z,12.47
2022-11-02T06:48:15.097Z,14.87
2022-11-02T06:50:43.235Z,16.20
2022-11-02T06:53:11.738Z,5.87
2022-11-02T06:55:40.044Z,10.13
2022-11-02T06:58:08.311Z,12.53
2022-11-02T07:00:37.981Z,9.43
2022-11-02T07:03:08.166Z,8.90
2022-11-02T07:05:37.192Z,13.67
2022-11-02T07:08:06.481Z,8.53
2022-11-02T07:10:36.127Z,11.30
2022-11-02T07:13:04.602Z,12.87
2022-11-02T07:15:32.948Z,11.17
2022-11-02T07:18:02.838Z,9.73
2022-11-02T07:20:31.481Z,8.10
2022-11-02T07:23:00.937Z,12.57
2022-11-02T07:25:31.548Z,6.17
2022-11-02T07:28:00.950Z,10.80
2022-11-02T07:30:29.484Z,10.93
2022-11-02T07:32:57.579Z,14.20
2022-11-02T07:35:27.205Z,7.97
2022-11-02T07:37:59.239Z,8.13
2022-11-02T07:40:28.306Z,9.53
2022-11-02T07:42:56.711Z,9.83
2022-11-02T07:45:25.373Z,7.40
2022-11-02T07:47:53.521Z,7.27
2022-11-02T07:50:23.119Z,8.43
2022-11-02T07:52:53.560Z,8.23
2022-11-02T07:55:24.032Z,10.73
2022-11-02T07:57:55.685Z,12.70
2022-11-02T08:00:24.411Z,11.20
2022-11-02T08:02:55.890Z,15.50
2022-11-02T08:05:24.318Z,8.70
2022-11-02T08:07:59.466Z,9.40
2022-11-02T08:10:28.242Z,16.60
2022-11-02T08:12:56.699Z,13.27
2022-11-02T08:15:28.042Z,14.50
2022-11-02T08:18:03.395Z,8.47
2022-11-02T08:20:32.111Z,7.30
2022-11-02T08:23:01.805Z,8.90
2022-11-02T08:25:29.924Z,9.23
2022-11-02T08:27:59.151Z,7.60
2022-11-02T08:30:27.841Z,14.90
2022-11-02T08:32:57.325Z,7.57
2022-11-02T08:35:25.531Z,5.23
2022-11-02T08:37:59.891Z,12.73
2022-11-02T08:40:29.397Z,6.23
2022-11-02T08:42:58.734Z,8.63
2022-11-02T08:45:27.031Z,10.83
2022-11-02T08:47:55.666Z,8.20
2022-11-02T08:50:24.767Z,7.10
2022-11-02T08:52:52.960Z,15.87
2022-11-02T08:55:21.093Z,6.67
2022-11-02T08:57:51.858Z,7.03
2022-11-02T09:00:22.281Z,10.00
2022-11-02T09:03:00.579Z,8.90
2022-11-02T09:05:28.985Z,10.13
2022-11-02T09:07:58.451Z,7.50
2022-11-02T09:10:27.654Z,6.83
2022-11-02T09:12:57.222Z,7.23
2022-11-02T09:15:25.409Z,7.27
2022-11-02T09:17:53.908Z,5.30
2022-11-02T09:20:23.192Z,5.87
2022-11-02T09:22:51.381Z,7.80
2022-11-02T09:25:19.980Z,11.37
2022-11-02T09:27:52.929Z,10.97
2022-11-02T09:30:25.210Z,8.80
2022-11-02T09:32:57.075Z,7.80
2022-11-02T09:35:25.972Z,11.77
2022-11-02T09:37:54.450Z,7.87
2022-11-02T09:40:24.236Z,12.90
2022-11-02T09:43:03.031Z,6.20
2022-11-02T09:45:35.580Z,7.07
2022-11-02T09:48:27.085Z,8.90
2022-11-02T09:51:02.094Z,11.90
2022-11-02T09:53:37.875Z,10.77
2022-11-02T09:56:07.213Z,7.63
2022-11-02T09:58:38.444Z,6.93
2022-11-02T10:01:14.593Z,5.27
2022-11-02T10:04:01.314Z,16.60
2022-11-02T10:06:30.418Z,21.80
2022-11-02T10:09:05.456Z,11.33
2022-11-02T10:11:42.998Z,8.63
2022-11-02T10:14:14.894Z,5.73
2022-11-02T10:16:50.651Z,5.90
2022-11-02T10:19:26.212Z,5.07
2022-11-02T10:21:59.068Z,15.60
2022-11-02T10:24:33.101Z,13.70
2022-11-02T10:27:02.397Z,50.70
2022-11-02T10:29:44.558Z,41.67
2022-11-02T10:32:15.125Z,18.33
2022-11-02T10:34:50.480Z,10.00
2022-11-02T10:37:37.928Z,8.53
2022-11-02T10:40:17.012Z,7.67
2022-11-02T10:42:53.598Z,7.70
2022-11-02T10:45:38.190Z,11.60
2022-11-02T10:48:17.157Z,5.80
2022-11-02T10:50:48.719Z,7.10
2022-11-02T10:56:14.386Z,7.27
2022-11-02T10:58:47.004Z,7.77
2022-11-02T11:01:15.213Z,9.80
2022-11-02T11:03:59.783Z,12.33
2022-11-02T11:06:30.678Z,17.57
2022-11-02T11:09:03.626Z,9.60
2022-11-02T11:11:33.594Z,5.27
2022-11-02T11:16:55.045Z,6.00
2022-11-02T11:22:05.379Z,7.80
2022-11-02T11:24:35.767Z,7.30
2022-11-02T11:27:16.924Z,7.93
2022-11-02T11:29:51.106Z,5.97
2022-11-02T11:32:24.547Z,6.73
2022-11-02T11:34:59.805Z,3.87
2022-11-02T11:37:28.117Z,12.47
2022-11-02T11:39:59.387Z,5.67
2022-11-02T11:42:30.540Z,7.73
2022-11-02T11:45:02.198Z,6.57
2022-11-02T11:47:33.621Z,5.30
2022-11-02T11:50:09.665Z,6.70
2022-11-02T11:52:43.268Z,5.83
2022-11-02T11:55:23.082Z,7.73
2022-11-02T11:58:06.945Z,9.23
2022-11-02T12:00:35.895Z,5.13
2022-11-02T12:03:06.194Z,4.77
2022-11-02T12:05:45.535Z,7.30
2022-11-02T12:08:33.315Z,5.60
2022-11-02T12:11:18.923Z,6.33
2022-11-02T12:13:56.792Z,16.67
2022-11-02T12:16:32.685Z,5.00
2022-11-02T12:19:11.396Z,12.43
2022-11-02T12:21:53.601Z,8.00
2022-11-02T12:24:43.134Z,6.37
2022-11-02T12:27:21.491Z,6.47
2022-11-02T12:30:15.668Z,4.90
2022-11-02T12:32:51.403Z,5.40
2022-11-02T12:35:40.402Z,8.20
2022-11-02T12:38:24.327Z,8.23
2022-11-02T12:40:59.663Z,7.13
2022-11-02T12:43:43.334Z,6.37
2022-11-02T12:46:38.973Z,4.40
2022-11-02T12:49:22.926Z,11.87
2022-11-02T12:51:55.204Z,7.60
2022-11-02T12:54:28.734Z,4.40
2022-11-02T12:56:57.248Z,9.23
2022-11-02T12:59:27.631Z,7.60
2022-11-02T13:01:58.451Z,6.53
2022-11-02T13:04:30.325Z,4.73
2022-11-02T13:07:03.061Z,6.70
2022-11-02T13:09:36.308Z,4.07
2022-11-02T13:12:07.104Z,7.93
2022-11-02T13:14:39.476Z,4.90
2022-11-02T13:17:15.920Z,6.10
2022-11-02T13:19:48.456Z,9.53
2022-11-02T13:22:18.121Z,3.00
2022-11-02T13:24:49.483Z,12.30
2022-11-02T13:27:41.573Z,4.73
2022-11-02T13:30:15.882Z,7.70
2022-11-02T13:32:46.251Z,7.40
2022-11-02T13:35:18.689Z,5.70
2022-11-02T13:37:48.529Z,4.17
2022-11-02T13:40:26.131Z,7.33
2022-11-02T13:43:20.549Z,4.00
2022-11-02T13:46:13.938Z,6.67
2022-11-02T13:48:51.661Z,14.70
2022-11-02T13:51:26.323Z,4.57
2022-11-02T13:53:57.078Z,8.77
2022-11-02T13:56:29.240Z,6.40
2022-11-02T13:59:00.739Z,5.60
2022-11-02T14:01:31.062Z,8.80
2022-11-02T14:04:04.855Z,10.30
2022-11-02T14:06:34.599Z,8.87
2022-11-02T14:09:04.672Z,11.27
2022-11-02T14:11:48.115Z,13.20
2022-11-02T14:14:25.409Z,4.33
2022-11-02T14:20:04.716Z,4.40
2022-11-02T14:22:33.336Z,8.20
2022-11-02T14:25:17.475Z,5.63
2022-11-02T14:27:47.124Z,4.63
2022-11-02T14:30:45.531Z,5.93
2022-11-02T14:33:33.534Z,9.10
2022-11-02T14:36:03.621Z,6.93
2022-11-02T14:38:49.341Z,7.80
2022-11-02T14:41:37.383Z,13.43
2022-11-02T14:44:21.358Z,3.13
2022-11-02T14:46:56.680Z,5.60
2022-11-02T14:49:28.306Z,8.63
2022-11-02T14:52:03.610Z,15.13
2022-11-02T14:54:33.921Z,6.70
2022-11-02T14:57:05.120Z,3.00
2022-11-02T14:59:36.839Z,3.80
2022-11-02T15:02:07.412Z,4.73
2022-11-02T15:04:35.881Z,5.30
2022-11-02T15:07:06.417Z,10.83
2022-11-02T15:09:58.666Z,9.70
2022-11-02T15:12:38.880Z,5.77
2022-11-02T15:15:34.719Z,10.47
2022-11-02T15:18:35.930Z,5.60
2022-11-02T15:21:37.022Z,5.10
2022-11-02T15:24:17.742Z,4.00
2022-11-02T15:26:49.897Z,14.63
2022-11-02T15:29:27.719Z,20.43
2022-11-02T15:31:57.861Z,8.17
2022-11-02T15:34:34.938Z,14.77
2022-11-02T15:37:03.316Z,10.03
2022-11-02T15:39:31.945Z,11.17
2022-11-02T15:42:04.686Z,7.80
2022-11-02T15:45:09.280Z,16.00
2022-11-02T15:47:54.955Z,9.40
2022-11-02T15:50:40.295Z,8.83
2022-11-02T15:53:37.616Z,4.57
2022-11-02T15:56:32.743Z,9.80
2022-11-02T15:59:22.183Z,10.63
2022-11-02T16:02:04.403Z,12.43
2022-11-02T16:04:32.500Z,3.83
2022-11-02T16:07:05.619Z,7.97
2022-11-02T16:09:36.026Z,15.50
2022-11-02T16:12:09.854Z,9.17
2022-11-02T16:14:38.851Z,10.67
2022-11-02T16:17:27.733Z,17.70
2022-11-02T16:20:11.658Z,10.50
2022-11-02T16:22:41.875Z,12.23
2022-11-02T16:25:13.376Z,11.93
2022-11-02T16:27:42.134Z,15.03
2022-11-02T16:30:19.402Z,11.43
2022-11-02T16:32:50.565Z,21.50
2022-11-02T16:35:21.469Z,15.23
2022-11-02T16:37:52.089Z,17.77
2022-11-02T16:40:21.042Z,9.53
2022-11-02T16:42:49.976Z,15.43
2022-11-02T16:45:35.874Z,19.83
2022-11-02T16:48:18.522Z,20.73
2022-11-02T16:51:04.256Z,19.07
2022-11-02T16:53:35.319Z,18.73
2022-11-02T16:56:18.554Z,14.77
2022-11-02T16:58:48.639Z,15.00
2022-11-02T17:01:22.414Z,14.77
2022-11-02T17:03:51.049Z,15.70
2022-11-02T17:06:19.665Z,14.87
2022-11-02T17:08:55.112Z,11.77
2022-11-02T17:11:23.529Z,10.40
2022-11-02T17:13:53.871Z,13.90
2022-11-02T17:16:22.885Z,22.23
2022-11-02T17:18:51.573Z,17.80
2022-11-02T17:21:28.537Z,21.90
2022-11-02T17:24:00.884Z,18.20
2022-11-02T17:26:34.854Z,15.03
2022-11-02T17:29:04.364Z,15.33
2022-11-02T17:31:33.823Z,22.07
2022-11-02T17:34:04.271Z,11.63
2022-11-02T17:36:32.438Z,16.57
2022-11-02T17:39:05.584Z,18.30
2022-11-02T17:41:51.131Z,14.30
2022-11-02T17:44:19.489Z,17.03
2022-11-02T17:46:47.833Z,13.90
2022-11-02T17:49:15.858Z,12.57
2022-11-02T17:51:44.494Z,18.60
2022-11-02T17:54:15.431Z,20.83
2022-11-02T17:56:43.547Z,22.53
2022-11-02T17:59:11.644Z,13.00
2022-11-02T18:01:40.213Z,18.87
2022-11-02T18:04:09.052Z,13.47
2022-11-02T18:06:37.066Z,14.97
2022-11-02T18:09:19.234Z,13.73
2022-11-02T18:11:49.339Z,10.43
2022-11-02T18:14:18.279Z,16.97
2022-11-02T18:16:46.559Z,18.50
2022-11-02T18:19:15.108Z,16.17
2022-11-02T18:21:43.169Z,14.00
2022-11-02T18:24:11.662Z,10.70
2022-11-02T18:26:44.210Z,14.13
2022-11-02T18:29:17.314Z,15.03
2022-11-02T18:31:45.407Z,22.63
2022-11-02T18:34:13.499Z,15.90
2022-11-02T18:36:42.201Z,11.23
2022-11-02T18:39:11.191Z,8.80
2022-11-02T18:41:40.428Z,12.83
2022-11-02T18:44:14.832Z,13.73
2022-11-02T18:46:45.351Z,20.90
2022-11-02T18:49:14.529Z,14.13
2022-11-02T18:51:43.614Z,13.13
2022-11-02T18:54:12.082Z,13.03
2022-11-02T18:56:40.876Z,9.80
2022-11-02T18:59:09.291Z,15.77
2022-11-02T19:01:37.930Z,11.97
2022-11-02T19:04:07.478Z,12.67
2022-11-02T19:06:53.383Z,10.03
2022-11-02T19:09:23.327Z,11.73
2022-11-02T19:11:57.385Z,15.93
2022-11-02T19:14:25.625Z,14.40
2022-11-02T19:16:53.842Z,12.37
2022-11-02T19:19:24.202Z,9.90
2022-11-02T19:21:52.444Z,15.23
2022-11-02T19:24:21.730Z,22.13
2022-11-02T19:26:50.303Z,13.03
2022-11-02T19:29:18.996Z,10.70
2022-11-02T19:31:48.704Z,13.53
2022-11-02T19:34:17.088Z,19.57
2022-11-02T19:36:46.497Z,12.93
2022-11-02T19:39:14.602Z,14.83
2022-11-02T19:41:42.611Z,12.40
2022-11-02T19:44:10.823Z,9.60
2022-11-02T19:46:38.939Z,16.57
2022-11-02T19:49:07.191Z,20.03
2022-11-02T19:51:35.929Z,15.73
2022-11-02T19:54:05.782Z,18.43
2022-11-02T19:56:35.687Z,17.23
2022-11-02T19:59:04.905Z,21.43
2022-11-02T20:01:34.105Z,19.67
2022-11-02T20:04:02.919Z,12.30
2022-11-02T20:06:34.061Z,18.30
2022-11-02T20:09:06.416Z,15.13
2022-11-02T20:11:36.027Z,36.43
2022-11-02T20:14:05.111Z,45.33
2022-11-02T20:16:33.484Z,37.27
2022-11-02T20:19:01.783Z,37.67
2022-11-02T20:21:36.717Z,22.13
2022-11-02T20:24:11.977Z,18.43
2022-11-02T20:26:42.035Z,23.10
2022-11-02T20:29:13.644Z,12.90
2022-11-02T20:31:45.335Z,22.60
2022-11-02T20:34:14.427Z,26.73
2022-11-02T20:36:42.780Z,26.80
2022-11-02T20:39:13.425Z,36.07
2022-11-02T20:41:41.564Z,36.53
2022-11-02T20:44:09.567Z,44.13
2022-11-02T20:46:41.486Z,28.90
2022-11-02T20:49:22.871Z,30.27
2022-11-02T20:51:59.964Z,26.73
2022-11-02T20:54:30.031Z,25.20
2022-11-02T20:56:58.382Z,22.07
2022-11-02T20:59:26.499Z,21.43
2022-11-02T21:01:54.993Z,15.07
2022-11-02T21:04:23.281Z,13.30
2022-11-02T21:06:52.307Z,8.60
2022-11-02T21:09:20.671Z,10.90
2022-11-02T21:12:07.447Z,17.10
2022-11-02T21:14:35.603Z,20.03
2022-11-02T21:17:05.818Z,8.67
2022-11-02T21:19:34.072Z,8.23
2022-11-02T21:22:02.143Z,8.97
2022-11-02T21:24:30.406Z,17.43
2022-11-02T21:27:00.366Z,9.90
2022-11-02T21:29:28.871Z,18.07
2022-11-02T21:31:58.460Z,10.10
2022-11-02T21:34:26.524Z,9.63
2022-11-02T21:36:54.971Z,12.90
2022-11-02T21:39:23.471Z,12.50
2022-11-02T21:41:51.499Z,6.83
2022-11-02T21:44:21.873Z,15.93
2022-11-02T21:46:51.082Z,10.13
2022-11-02T21:49:19.430Z,12.53
2022-11-02T21:51:47.789Z,14.93
2022-11-02T21:54:16.133Z,8.73
2022-11-02T21:56:46.272Z,18.93
2022-11-02T21:59:14.249Z,6.90
2022-11-02T22:01:47.147Z,16.40
2022-11-02T22:04:17.420Z,14.63
2022-11-02T22:06:45.864Z,14.00
2022-11-02T22:09:16.511Z,10.80
2022-11-02T22:11:45.239Z,15.33
2022-11-02T22:14:12.923Z,8.30
2022-11-02T22:16:43.666Z,13.13
2022-11-02T22:19:15.992Z,10.13
2022-11-02T22:21:47.006Z,12.07
2022-11-02T22:24:15.306Z,9.07
2022-11-02T22:26:44.212Z,6.53
2022-11-02T22:29:12.680Z,13.37
2022-11-02T22:31:43.140Z,12.07
2022-11-02T22:34:12.809Z,10.70
2022-11-02T22:36:42.622Z,16.70
2022-11-02T22:39:12.072Z,11.10
2022-11-02T22:41:41.510Z,10.43
2022-11-02T22:44:11.316Z,7.00
2022-11-02T22:46:41.489Z,12.83
2022-11-02T22:49:12.771Z,12.03
2022-11-02T22:51:43.199Z,9.00
2022-11-02T22:54:15.538Z,8.10
2022-11-02T22:56:45.125Z,9.93
2022-11-02T22:59:13.343Z,11.10
2022-11-02T23:01:42.312Z,10.17
2022-11-02T23:04:13.525Z,13.33
2022-11-02T23:06:45.318Z,14.50
2022-11-02T23:09:13.983Z,13.87
2022-11-02T23:11:43.932Z,5.97
2022-11-02T23:14:14.148Z,9.20
2022-11-02T23:16:47.274Z,9.13
2022-11-02T23:19:25.243Z,11.03
2022-11-02T23:22:10.316Z,12.40
2022-11-02T23:24:56.379Z,7.53
2022-11-02T23:27:24.891Z,14.33
2022-11-02T23:30:10.530Z,8.50
2022-11-02T23:32:39.259Z,8.20
2022-11-02T23:35:27.029Z,8.93
2022-11-02T23:38:04.009Z,8.70
2022-11-02T23:40:32.816Z,18.63
2022-11-02T23:43:01.374Z,30.40
2022-11-02T23:45:29.733Z,11.07
2022-11-02T23:48:10.004Z,13.07
2022-11-02T23:50:57.172Z,10.43
2022-11-02T23:53:42.638Z,12.47
2022-11-02T23:56:33.421Z,10.40
2022-11-02T23:59:07.520Z,12.30
